sensor_id;sensor_type;location;lat;lon;timestamp;P1;durP1;ratioP1;P2;durP2;ratioP2
39322;SDS011;25036;53.638;10.134;2024-03-06T00:00:31;8.20;;;4.95;;
39322;SDS011;25036;53.638;10.134;2024-03-06T00:01:33;5.97;;;5.28;;
39322;SDS011;25036;53.638;10.134;2024-03-06T00:02:34;7.07;;;5.00;;
39322;SDS011;25036;53.638;10.134;2024-03-06T00:03:34;7.60;;;5.05;;
39322;SDS011;25036;53.638;10.134;2024-03-06T00:04:35;6.37;;;5.10;;
39322;SDS011;25036;53.638;10.134;2024-03-06T00:05:35;7.37;;;5.50;;
39322;SDS011;25036;53.638;10.134;2024-03-06T00:06:35;5.93;;;5.17;;
39322;SDS011;25036;53.638;10.134;2024-03-06T00:07:35;7.07;;;4.78;;
39322;SDS011;25036;53.638;10.134;2024-03-06T00:08:36;7.78;;;5.65;;
39322;SDS011;25036;53.638;10.134;2024-03-06T00:09:37;6.50;;;5.30;;
39322;SDS011;25036;53.638;10.134;2024-03-06T00:10:37;7.23;;;5.57;;
39322;SDS011;25036;53.638;10.134;2024-03-06T00:11:37;6.17;;;5.03;;
39322;SDS011;25036;53.638;10.134;2024-03-06T00:12:37;6.55;;;5.25;;
39322;SDS011;25036;53.638;10.134;2024-03-06T00:13:37;9.33;;;6.33;;
39322;SDS011;25036;53.638;10.134;2024-03-06T00:14:37;9.07;;;5.20;;
39322;SDS011;25036;53.638;10.134;2024-03-06T00:15:37;7.47;;;5.50;;
39322;SDS011;25036;53.638;10.134;2024-03-06T00:16:38;6.53;;;5.23;;
39322;SDS011;25036;53.638;10.134;2024-03-06T00:17:38;5.55;;;4.88;;
39322;SDS011;25036;53.638;10.134;2024-03-06T00:18:38;6.37;;;5.10;;
39322;SDS011;25036;53.638;10.134;2024-03-06T00:19:38;5.93;;;4.93;;
39322;SDS011;25036;53.638;10.134;2024-03-06T00:20:38;7.63;;;5.30;;
39322;SDS011;25036;53.638;10.134;2024-03-06T00:21:42;6.05;;;4.78;;
39322;SDS011;25036;53.638;10.134;2024-03-06T00:22:42;6.40;;;5.15;;
39322;SDS011;25036;53.638;10.134;2024-03-06T00:23:42;6.78;;;5.45;;
39322;SDS011;25036;53.638;10.134;2024-03-06T00:24:42;6.03;;;5.30;;
39322;SDS011;25036;53.638;10.134;2024-03-06T00:25:43;6.03;;;4.93;;
39322;SDS011;25036;53.638;10.134;2024-03-06T00:26:46;9.83;;;5.20;;
39322;SDS011;25036;53.638;10.134;2024-03-06T00:27:47;7.15;;;4.80;;
39322;SDS011;25036;53.638;10.134;2024-03-06T00:28:47;5.20;;;4.70;;
39322;SDS011;25036;53.638;10.134;2024-03-06T00:29:47;7.40;;;4.90;;
39322;SDS011;25036;53.638;10.134;2024-03-06T00:30:48;7.87;;;4.93;;
39322;SDS011;25036;53.638;10.134;2024-03-06T00:31:48;7.17;;;4.83;;
39322;SDS011;25036;53.638;10.134;2024-03-06T00:32:48;5.83;;;5.17;;
39322;SDS011;25036;53.638;10.134;2024-03-06T00:33:48;8.73;;;5.45;;
39322;SDS011;25036;53.638;10.134;2024-03-06T00:34:48;7.07;;;5.10;;
39322;SDS011;25036;53.638;10.134;2024-03-06T00:35:48;5.50;;;4.80;;
39322;SDS011;25036;53.638;10.134;2024-03-06T00:36:48;6.85;;;5.03;;
39322;SDS011;25036;53.638;10.134;2024-03-06T00:37:50;7.07;;;5.05;;
39322;SDS011;25036;53.638;10.134;2024-03-06T00:38:50;7.03;;;5.00;;
39322;SDS011;25036;53.638;10.134;2024-03-06T00:39:50;7.10;;;5.17;;
39322;SDS011;25036;53.638;10.134;2024-03-06T00:40:50;7.00;;;5.50;;
39322;SDS011;25036;53.638;10.134;2024-03-06T00:41:50;6.95;;;4.70;;
39322;SDS011;25036;53.638;10.134;2024-03-06T00:42:51;5.83;;;4.87;;
39322;SDS011;25036;53.638;10.134;2024-03-06T00:43:51;6.30;;;5.27;;
39322;SDS011;25036;53.638;10.134;2024-03-06T00:44:51;6.27;;;4.80;;
39322;SDS011;25036;53.638;10.134;2024-03-06T00:45:51;6.72;;;5.10;;
39322;SDS011;25036;53.638;10.134;2024-03-06T00:46:51;7.50;;;5.20;;
39322;SDS011;25036;53.638;10.134;2024-03-06T00:47:51;6.97;;;5.00;;
39322;SDS011;25036;53.638;10.134;2024-03-06T00:48:52;6.53;;;4.80;;
39322;SDS011;25036;53.638;10.134;2024-03-06T00:49:52;5.70;;;4.83;;
39322;SDS011;25036;53.638;10.134;2024-03-06T00:50:52;6.03;;;5.07;;
39322;SDS011;25036;53.638;10.134;2024-03-06T00:51:52;7.37;;;4.80;;
39322;SDS011;25036;53.638;10.134;2024-03-06T00:52:52;6.77;;;4.80;;
39322;SDS011;25036;53.638;10.134;2024-03-06T00:53:52;7.65;;;4.43;;
39322;SDS011;25036;53.638;10.134;2024-03-06T00:54:52;7.20;;;4.80;;
39322;SDS011;25036;53.638;10.134;2024-03-06T00:55:53;6.68;;;4.85;;
39322;SDS011;25036;53.638;10.134;2024-03-06T00:56:53;5.93;;;5.07;;
39322;SDS011;25036;53.638;10.134;2024-03-06T00:57:53;7.90;;;4.57;;
39322;SDS011;25036;53.638;10.134;2024-03-06T00:58:53;5.37;;;4.57;;
39322;SDS011;25036;53.638;10.134;2024-03-06T00:59:54;7.03;;;4.80;;
39322;SDS011;25036;53.638;10.134;2024-03-06T01:00:54;6.77;;;4.77;;
39322;SDS011;25036;53.638;10.134;2024-03-06T01:01:54;5.17;;;4.50;;
39322;SDS011;25036;53.638;10.134;2024-03-06T01:02:57;7.38;;;4.70;;
39322;SDS011;25036;53.638;10.134;2024-03-06T01:03:57;5.97;;;4.40;;
39322;SDS011;25036;53.638;10.134;2024-03-06T01:04:57;7.57;;;4.73;;
39322;SDS011;25036;53.638;10.134;2024-03-06T01:05:57;5.93;;;4.50;;
39322;SDS011;25036;53.638;10.134;2024-03-06T01:06:57;6.37;;;4.50;;
39322;SDS011;25036;53.638;10.134;2024-03-06T01:07:58;5.45;;;4.45;;
39322;SDS011;25036;53.638;10.134;2024-03-06T01:08:59;8.18;;;4.70;;
39322;SDS011;25036;53.638;10.134;2024-03-06T01:09:59;7.70;;;4.50;;
39322;SDS011;25036;53.638;10.134;2024-03-06T01:10:59;6.32;;;4.53;;
39322;SDS011;25036;53.638;10.134;2024-03-06T01:11:59;6.93;;;4.63;;
39322;SDS011;25036;53.638;10.134;2024-03-06T01:12:59;5.40;;;4.30;;
39322;SDS011;25036;53.638;10.134;2024-03-06T01:13:59;7.03;;;5.03;;
39322;SDS011;25036;53.638;10.134;2024-03-06T01:15:00;7.93;;;4.78;;
39322;SDS011;25036;53.638;10.134;2024-03-06T01:16:00;6.57;;;4.55;;
39322;SDS011;25036;53.638;10.134;2024-03-06T01:17:00;7.47;;;4.77;;
39322;SDS011;25036;53.638;10.134;2024-03-06T01:18:00;7.43;;;4.40;;
39322;SDS011;25036;53.638;10.134;2024-03-06T01:19:00;5.07;;;4.47;;
39322;SDS011;25036;53.638;10.134;2024-03-06T01:20:00;5.67;;;4.00;;
39322;SDS011;25036;53.638;10.134;2024-03-06T01:21:02;7.18;;;4.65;;
39322;SDS011;25036;53.638;10.134;2024-03-06T01:22:03;6.32;;;4.82;;
39322;SDS011;25036;53.638;10.134;2024-03-06T01:23:03;5.13;;;4.53;;
39322;SDS011;25036;53.638;10.134;2024-03-06T01:24:04;7.22;;;4.28;;
39322;SDS011;25036;53.638;10.134;2024-03-06T01:25:04;5.32;;;4.75;;
39322;SDS011;25036;53.638;10.134;2024-03-06T01:26:04;6.25;;;4.53;;
39322;SDS011;25036;53.638;10.134;2024-03-06T01:27:04;9.03;;;4.13;;
39322;SDS011;25036;53.638;10.134;2024-03-06T01:28:05;7.28;;;4.38;;
39322;SDS011;25036;53.638;10.134;2024-03-06T01:29:05;5.63;;;4.00;;
39322;SDS011;25036;53.638;10.134;2024-03-06T01:30:05;8.10;;;4.33;;
39322;SDS011;25036;53.638;10.134;2024-03-06T01:31:06;7.07;;;3.97;;
39322;SDS011;25036;53.638;10.134;2024-03-06T01:32:06;6.90;;;4.15;;
39322;SDS011;25036;53.638;10.134;2024-03-06T01:33:06;6.97;;;4.03;;
39322;SDS011;25036;53.638;10.134;2024-03-06T01:34:06;6.07;;;4.47;;
39322;SDS011;25036;53.638;10.134;2024-03-06T01:35:07;6.17;;;4.07;;
39322;SDS011;25036;53.638;10.134;2024-03-06T01:36:07;4.30;;;3.60;;
39322;SDS011;25036;53.638;10.134;2024-03-06T01:37:07;6.50;;;4.40;;
39322;SDS011;25036;53.638;10.134;2024-03-06T01:38:07;5.83;;;4.33;;
39322;SDS011;25036;53.638;10.134;2024-03-06T01:39:09;6.15;;;3.72;;
39322;SDS011;25036;53.638;10.134;2024-03-06T01:40:09;4.82;;;4.32;;
39322;SDS011;25036;53.638;10.134;2024-03-06T01:41:10;7.03;;;4.10;;
39322;SDS011;25036;53.638;10.134;2024-03-06T01:42:10;6.57;;;4.07;;
39322;SDS011;25036;53.638;10.134;2024-03-06T01:43:20;5.30;;;3.70;;
39322;SDS011;25036;53.638;10.134;2024-03-06T01:44:21;4.35;;;3.42;;
39322;SDS011;25036;53.638;10.134;2024-03-06T01:45:21;4.37;;;3.83;;
39322;SDS011;25036;53.638;10.134;2024-03-06T01:46:22;5.47;;;4.13;;
39322;SDS011;25036;53.638;10.134;2024-03-06T01:47:22;6.15;;;4.07;;
39322;SDS011;25036;53.638;10.134;2024-03-06T01:48:23;7.20;;;4.83;;
39322;SDS011;25036;53.638;10.134;2024-03-06T01:49:25;7.97;;;3.90;;
39322;SDS011;25036;53.638;10.134;2024-03-06T01:50:26;5.07;;;3.65;;
39322;SDS011;25036;53.638;10.134;2024-03-06T01:51:26;5.65;;;4.00;;
39322;SDS011;25036;53.638;10.134;2024-03-06T01:52:26;4.97;;;4.00;;
39322;SDS011;25036;53.638;10.134;2024-03-06T01:53:28;4.43;;;3.88;;
39322;SDS011;25036;53.638;10.134;2024-03-06T01:54:30;4.78;;;3.85;;
39322;SDS011;25036;53.638;10.134;2024-03-06T01:55:31;6.88;;;4.38;;
39322;SDS011;25036;53.638;10.134;2024-03-06T01:56:31;5.35;;;4.20;;
39322;SDS011;25036;53.638;10.134;2024-03-06T01:57:32;5.28;;;3.83;;
39322;SDS011;25036;53.638;10.134;2024-03-06T01:58:33;6.03;;;3.42;;
39322;SDS011;25036;53.638;10.134;2024-03-06T01:59:33;5.00;;;3.88;;
39322;SDS011;25036;53.638;10.134;2024-03-06T02:00:34;5.00;;;4.05;;
39322;SDS011;25036;53.638;10.134;2024-03-06T02:01:34;5.65;;;4.32;;
39322;SDS011;25036;53.638;10.134;2024-03-06T02:02:35;4.32;;;3.60;;
39322;SDS011;25036;53.638;10.134;2024-03-06T02:03:35;5.17;;;3.70;;
39322;SDS011;25036;53.638;10.134;2024-03-06T02:04:35;5.25;;;3.72;;
39322;SDS011;25036;53.638;10.134;2024-03-06T02:05:35;7.67;;;4.00;;
39322;SDS011;25036;53.638;10.134;2024-03-06T02:06:36;5.90;;;4.05;;
39322;SDS011;25036;53.638;10.134;2024-03-06T02:07:38;5.07;;;4.00;;
39322;SDS011;25036;53.638;10.134;2024-03-06T02:08:39;4.07;;;3.50;;
39322;SDS011;25036;53.638;10.134;2024-03-06T02:09:39;4.40;;;3.60;;
39322;SDS011;25036;53.638;10.134;2024-03-06T02:10:40;5.57;;;4.00;;
39322;SDS011;25036;53.638;10.134;2024-03-06T02:11:41;5.18;;;3.83;;
39322;SDS011;25036;53.638;10.134;2024-03-06T02:12:41;4.65;;;3.40;;
39322;SDS011;25036;53.638;10.134;2024-03-06T02:13:43;5.25;;;3.72;;
39322;SDS011;25036;53.638;10.134;2024-03-06T02:14:43;4.10;;;3.70;;
39322;SDS011;25036;53.638;10.134;2024-03-06T02:15:46;3.93;;;3.53;;
39322;SDS011;25036;53.638;10.134;2024-03-06T02:16:46;4.78;;;3.60;;
39322;SDS011;25036;53.638;10.134;2024-03-06T02:17:46;5.87;;;3.97;;
39322;SDS011;25036;53.638;10.134;2024-03-06T02:18:56;6.68;;;3.85;;
39322;SDS011;25036;53.638;10.134;2024-03-06T02:19:59;6.22;;;3.75;;
39322;SDS011;25036;53.638;10.134;2024-03-06T02:20:59;4.85;;;3.80;;
39322;SDS011;25036;53.638;10.134;2024-03-06T02:21:59;4.37;;;3.97;;
39322;SDS011;25036;53.638;10.134;2024-03-06T02:22:59;5.47;;;3.80;;
39322;SDS011;25036;53.638;10.134;2024-03-06T02:23:59;5.43;;;3.80;;
39322;SDS011;25036;53.638;10.134;2024-03-06T02:24:59;5.88;;;3.60;;
39322;SDS011;25036;53.638;10.134;2024-03-06T02:26:00;5.63;;;3.83;;
39322;SDS011;25036;53.638;10.134;2024-03-06T02:27:00;4.63;;;3.70;;
39322;SDS011;25036;53.638;10.134;2024-03-06T02:28:00;6.33;;;3.70;;
39322;SDS011;25036;53.638;10.134;2024-03-06T02:29:00;6.25;;;3.83;;
39322;SDS011;25036;53.638;10.134;2024-03-06T02:30:00;4.53;;;3.73;;
39322;SDS011;25036;53.638;10.134;2024-03-06T02:31:00;5.00;;;3.73;;
39322;SDS011;25036;53.638;10.134;2024-03-06T02:32:01;6.10;;;4.07;;
39322;SDS011;25036;53.638;10.134;2024-03-06T02:33:05;5.05;;;3.85;;
39322;SDS011;25036;53.638;10.134;2024-03-06T02:34:09;4.53;;;3.78;;
39322;SDS011;25036;53.638;10.134;2024-03-06T02:35:09;4.68;;;3.80;;
39322;SDS011;25036;53.638;10.134;2024-03-06T02:36:10;5.28;;;3.70;;
39322;SDS011;25036;53.638;10.134;2024-03-06T02:37:10;6.38;;;3.80;;
39322;SDS011;25036;53.638;10.134;2024-03-06T02:38:11;6.28;;;3.88;;
39322;SDS011;25036;53.638;10.134;2024-03-06T02:39:11;5.53;;;3.40;;
39322;SDS011;25036;53.638;10.134;2024-03-06T02:40:11;5.13;;;3.90;;
39322;SDS011;25036;53.638;10.134;2024-03-06T02:41:11;5.75;;;3.90;;
39322;SDS011;25036;53.638;10.134;2024-03-06T02:42:13;5.20;;;3.83;;
39322;SDS011;25036;53.638;10.134;2024-03-06T02:43:14;5.67;;;3.80;;
39322;SDS011;25036;53.638;10.134;2024-03-06T02:44:15;4.13;;;3.58;;
39322;SDS011;25036;53.638;10.134;2024-03-06T02:45:17;6.95;;;3.80;;
39322;SDS011;25036;53.638;10.134;2024-03-06T02:46:17;5.97;;;3.93;;
39322;SDS011;25036;53.638;10.134;2024-03-06T02:47:17;6.63;;;3.77;;
39322;SDS011;25036;53.638;10.134;2024-03-06T02:48:18;5.83;;;3.63;;
39322;SDS011;25036;53.638;10.134;2024-03-06T02:49:18;4.90;;;3.45;;
39322;SDS011;25036;53.638;10.134;2024-03-06T02:50:18;6.00;;;3.78;;
39322;SDS011;25036;53.638;10.134;2024-03-06T02:51:21;5.97;;;3.75;;
39322;SDS011;25036;53.638;10.134;2024-03-06T02:52:21;6.53;;;4.10;;
39322;SDS011;25036;53.638;10.134;2024-03-06T02:53:21;4.72;;;3.85;;
39322;SDS011;25036;53.638;10.134;2024-03-06T02:54:21;5.07;;;3.67;;
39322;SDS011;25036;53.638;10.134;2024-03-06T02:55:22;5.03;;;3.67;;
39322;SDS011;25036;53.638;10.134;2024-03-06T02:56:22;3.78;;;3.38;;
39322;SDS011;25036;53.638;10.134;2024-03-06T02:57:22;6.20;;;4.00;;
39322;SDS011;25036;53.638;10.134;2024-03-06T02:58:22;5.80;;;3.35;;
39322;SDS011;25036;53.638;10.134;2024-03-06T02:59:22;6.27;;;3.53;;
39322;SDS011;25036;53.638;10.134;2024-03-06T03:00:24;5.55;;;3.42;;
39322;SDS011;25036;53.638;10.134;2024-03-06T03:01:24;4.30;;;3.30;;
39322;SDS011;25036;53.638;10.134;2024-03-06T03:02:24;5.72;;;3.45;;
39322;SDS011;25036;53.638;10.134;2024-03-06T03:03:24;5.90;;;3.40;;
39322;SDS011;25036;53.638;10.134;2024-03-06T03:04:25;4.82;;;3.60;;
39322;SDS011;25036;53.638;10.134;2024-03-06T03:05:26;5.30;;;3.50;;
39322;SDS011;25036;53.638;10.134;2024-03-06T03:06:26;5.32;;;3.20;;
39322;SDS011;25036;53.638;10.134;2024-03-06T03:07:26;4.50;;;3.30;;
39322;SDS011;25036;53.638;10.134;2024-03-06T03:08:27;5.03;;;3.03;;
39322;SDS011;25036;53.638;10.134;2024-03-06T03:09:27;4.87;;;3.77;;
39322;SDS011;25036;53.638;10.134;2024-03-06T03:10:28;5.55;;;3.42;;
39322;SDS011;25036;53.638;10.134;2024-03-06T03:11:28;5.67;;;3.17;;
39322;SDS011;25036;53.638;10.134;2024-03-06T03:12:28;5.63;;;3.30;;
39322;SDS011;25036;53.638;10.134;2024-03-06T03:13:28;5.00;;;3.47;;
39322;SDS011;25036;53.638;10.134;2024-03-06T03:14:28;4.55;;;3.08;;
39322;SDS011;25036;53.638;10.134;2024-03-06T03:15:28;3.70;;;3.13;;
39322;SDS011;25036;53.638;10.134;2024-03-06T03:16:28;4.73;;;3.50;;
39322;SDS011;25036;53.638;10.134;2024-03-06T03:17:29;4.80;;;3.35;;
39322;SDS011;25036;53.638;10.134;2024-03-06T03:18:29;5.10;;;3.20;;
39322;SDS011;25036;53.638;10.134;2024-03-06T03:19:30;6.37;;;3.20;;
39322;SDS011;25036;53.638;10.134;2024-03-06T03:20:30;5.47;;;3.20;;
39322;SDS011;25036;53.638;10.134;2024-03-06T03:21:30;4.70;;;3.38;;
39322;SDS011;25036;53.638;10.134;2024-03-06T03:22:30;4.80;;;3.20;;
39322;SDS011;25036;53.638;10.134;2024-03-06T03:23:30;4.23;;;2.50;;
39322;SDS011;25036;53.638;10.134;2024-03-06T03:24:30;4.87;;;3.30;;
39322;SDS011;25036;53.638;10.134;2024-03-06T03:25:31;6.03;;;3.30;;
39322;SDS011;25036;53.638;10.134;2024-03-06T03:26:31;4.93;;;3.20;;
39322;SDS011;25036;53.638;10.134;2024-03-06T03:27:31;5.83;;;3.40;;
39322;SDS011;25036;53.638;10.134;2024-03-06T03:28:31;4.50;;;3.50;;
39322;SDS011;25036;53.638;10.134;2024-03-06T03:29:32;6.00;;;3.28;;
39322;SDS011;25036;53.638;10.134;2024-03-06T03:30:33;4.45;;;3.15;;
39322;SDS011;25036;53.638;10.134;2024-03-06T03:31:33;4.35;;;3.22;;
39322;SDS011;25036;53.638;10.134;2024-03-06T03:32:33;3.33;;;2.80;;
39322;SDS011;25036;53.638;10.134;2024-03-06T03:33:33;4.23;;;3.23;;
39322;SDS011;25036;53.638;10.134;2024-03-06T03:34:34;4.60;;;2.92;;
39322;SDS011;25036;53.638;10.134;2024-03-06T03:35:34;4.38;;;2.95;;
39322;SDS011;25036;53.638;10.134;2024-03-06T03:36:34;5.23;;;3.10;;
39322;SDS011;25036;53.638;10.134;2024-03-06T03:37:34;3.97;;;3.08;;
39322;SDS011;25036;53.638;10.134;2024-03-06T03:38:35;4.97;;;2.73;;
39322;SDS011;25036;53.638;10.134;2024-03-06T03:39:38;3.90;;;3.13;;
39322;SDS011;25036;53.638;10.134;2024-03-06T03:40:38;3.77;;;3.00;;
39322;SDS011;25036;53.638;10.134;2024-03-06T03:41:42;5.32;;;3.30;;
39322;SDS011;25036;53.638;10.134;2024-03-06T03:42:43;4.10;;;3.03;;
39322;SDS011;25036;53.638;10.134;2024-03-06T03:43:43;4.45;;;2.97;;
39322;SDS011;25036;53.638;10.134;2024-03-06T03:44:43;5.30;;;3.10;;
39322;SDS011;25036;53.638;10.134;2024-03-06T03:45:43;4.00;;;3.00;;
39322;SDS011;25036;53.638;10.134;2024-03-06T03:46:44;6.03;;;3.07;;
39322;SDS011;25036;53.638;10.134;2024-03-06T03:47:44;5.60;;;3.13;;
39322;SDS011;25036;53.638;10.134;2024-03-06T03:48:44;5.43;;;2.90;;
39322;SDS011;25036;53.638;10.134;2024-03-06T03:49:44;5.53;;;3.13;;
39322;SDS011;25036;53.638;10.134;2024-03-06T03:50:44;4.97;;;2.90;;
39322;SDS011;25036;53.638;10.134;2024-03-06T03:51:45;4.07;;;2.70;;
39322;SDS011;25036;53.638;10.134;2024-03-06T03:52:45;4.30;;;2.75;;
39322;SDS011;25036;53.638;10.134;2024-03-06T03:53:45;4.23;;;2.90;;
39322;SDS011;25036;53.638;10.134;2024-03-06T03:54:50;4.07;;;3.20;;
39322;SDS011;25036;53.638;10.134;2024-03-06T03:55:50;4.63;;;2.97;;
39322;SDS011;25036;53.638;10.134;2024-03-06T03:56:51;3.72;;;2.95;;
39322;SDS011;25036;53.638;10.134;2024-03-06T03:57:51;3.63;;;2.87;;
39322;SDS011;25036;53.638;10.134;2024-03-06T03:58:52;6.13;;;3.45;;
39322;SDS011;25036;53.638;10.134;2024-03-06T03:59:52;4.53;;;2.80;;
39322;SDS011;25036;53.638;10.134;2024-03-06T04:00:52;5.03;;;2.80;;
39322;SDS011;25036;53.638;10.134;2024-03-06T04:01:53;3.20;;;2.83;;
39322;SDS011;25036;53.638;10.134;2024-03-06T04:02:53;3.25;;;2.95;;
39322;SDS011;25036;53.638;10.134;2024-03-06T04:03:53;9.73;;;3.63;;
39322;SDS011;25036;53.638;10.134;2024-03-06T04:04:53;3.60;;;2.97;;
39322;SDS011;25036;53.638;10.134;2024-03-06T04:05:53;3.20;;;2.90;;
39322;SDS011;25036;53.638;10.134;2024-03-06T04:06:53;3.87;;;2.87;;
39322;SDS011;25036;53.638;10.134;2024-03-06T04:07:53;5.20;;;3.03;;
39322;SDS011;25036;53.638;10.134;2024-03-06T04:08:54;3.83;;;3.00;;
39322;SDS011;25036;53.638;10.134;2024-03-06T04:09:54;4.45;;;2.92;;
39322;SDS011;25036;53.638;10.134;2024-03-06T04:10:55;4.57;;;2.90;;
39322;SDS011;25036;53.638;10.134;2024-03-06T04:11:55;3.70;;;2.88;;
39322;SDS011;25036;53.638;10.134;2024-03-06T04:12:55;3.40;;;3.10;;
39322;SDS011;25036;53.638;10.134;2024-03-06T04:13:55;4.17;;;2.70;;
39322;SDS011;25036;53.638;10.134;2024-03-06T04:14:55;4.37;;;2.97;;
39322;SDS011;25036;53.638;10.134;2024-03-06T04:15:55;3.73;;;2.87;;
39322;SDS011;25036;53.638;10.134;2024-03-06T04:16:56;3.20;;;2.90;;
39322;SDS011;25036;53.638;10.134;2024-03-06T04:17:56;8.88;;;3.08;;
39322;SDS011;25036;53.638;10.134;2024-03-06T04:18:56;3.67;;;3.17;;
39322;SDS011;25036;53.638;10.134;2024-03-06T04:19:56;3.80;;;2.80;;
39322;SDS011;25036;53.638;10.134;2024-03-06T04:20:56;3.67;;;2.93;;
39322;SDS011;25036;53.638;10.134;2024-03-06T04:21:56;5.72;;;3.20;;
39322;SDS011;25036;53.638;10.134;2024-03-06T04:22:56;4.57;;;3.20;;
39322;SDS011;25036;53.638;10.134;2024-03-06T04:23:57;3.23;;;2.80;;
39322;SDS011;25036;53.638;10.134;2024-03-06T04:24:58;4.35;;;3.30;;
39322;SDS011;25036;53.638;10.134;2024-03-06T04:25:59;4.18;;;2.80;;
39322;SDS011;25036;53.638;10.134;2024-03-06T04:26:59;3.78;;;2.80;;
39322;SDS011;25036;53.638;10.134;2024-03-06T04:27:59;4.37;;;3.30;;
39322;SDS011;25036;53.638;10.134;2024-03-06T04:28:59;3.67;;;3.00;;
39322;SDS011;25036;53.638;10.134;2024-03-06T04:29:59;6.13;;;3.00;;
39322;SDS011;25036;53.638;10.134;2024-03-06T04:31:00;3.40;;;3.10;;
39322;SDS011;25036;53.638;10.134;2024-03-06T04:32:00;4.63;;;3.00;;
39322;SDS011;25036;53.638;10.134;2024-03-06T04:33:00;3.50;;;2.83;;
39322;SDS011;25036;53.638;10.134;2024-03-06T04:34:01;5.78;;;3.47;;
39322;SDS011;25036;53.638;10.134;2024-03-06T04:35:01;3.77;;;3.20;;
39322;SDS011;25036;53.638;10.134;2024-03-06T04:36:02;3.88;;;3.15;;
39322;SDS011;25036;53.638;10.134;2024-03-06T04:37:02;4.75;;;3.00;;
39322;SDS011;25036;53.638;10.134;2024-03-06T04:38:03;3.97;;;3.10;;
39322;SDS011;25036;53.638;10.134;2024-03-06T04:39:03;4.35;;;3.13;;
39322;SDS011;25036;53.638;10.134;2024-03-06T04:40:07;3.95;;;3.25;;
39322;SDS011;25036;53.638;10.134;2024-03-06T04:41:07;3.63;;;2.72;;
39322;SDS011;25036;53.638;10.134;2024-03-06T04:42:07;3.10;;;2.80;;
39322;SDS011;25036;53.638;10.134;2024-03-06T04:43:08;4.23;;;2.80;;
39322;SDS011;25036;53.638;10.134;2024-03-06T04:44:08;3.63;;;2.87;;
39322;SDS011;25036;53.638;10.134;2024-03-06T04:45:10;3.20;;;2.90;;
39322;SDS011;25036;53.638;10.134;2024-03-06T04:46:12;4.07;;;3.10;;
39322;SDS011;25036;53.638;10.134;2024-03-06T04:47:12;3.45;;;2.97;;
39322;SDS011;25036;53.638;10.134;2024-03-06T04:48:12;3.50;;;2.70;;
39322;SDS011;25036;53.638;10.134;2024-03-06T04:49:13;5.77;;;3.03;;
39322;SDS011;25036;53.638;10.134;2024-03-06T04:50:13;3.10;;;2.80;;
39322;SDS011;25036;53.638;10.134;2024-03-06T04:51:14;3.33;;;3.03;;
39322;SDS011;25036;53.638;10.134;2024-03-06T04:52:14;5.00;;;3.57;;
39322;SDS011;25036;53.638;10.134;2024-03-06T04:53:14;3.73;;;3.20;;
39322;SDS011;25036;53.638;10.134;2024-03-06T04:54:14;4.57;;;2.93;;
39322;SDS011;25036;53.638;10.134;2024-03-06T04:55:14;3.30;;;2.90;;
39322;SDS011;25036;53.638;10.134;2024-03-06T04:56:15;3.65;;;3.05;;
39322;SDS011;25036;53.638;10.134;2024-03-06T04:57:18;4.22;;;3.30;;
39322;SDS011;25036;53.638;10.134;2024-03-06T04:58:18;3.97;;;3.20;;
39322;SDS011;25036;53.638;10.134;2024-03-06T04:59:20;3.97;;;3.30;;
39322;SDS011;25036;53.638;10.134;2024-03-06T05:00:20;5.30;;;3.30;;
39322;SDS011;25036;53.638;10.134;2024-03-06T05:01:20;4.20;;;3.17;;
39322;SDS011;25036;53.638;10.134;2024-03-06T05:02:21;3.50;;;2.90;;
39322;SDS011;25036;53.638;10.134;2024-03-06T05:03:21;5.00;;;3.27;;
39322;SDS011;25036;53.638;10.134;2024-03-06T05:04:22;3.67;;;3.10;;
39322;SDS011;25036;53.638;10.134;2024-03-06T05:05:22;3.92;;;2.92;;
39322;SDS011;25036;53.638;10.134;2024-03-06T05:06:22;5.90;;;3.28;;
39322;SDS011;25036;53.638;10.134;2024-03-06T05:07:23;4.10;;;3.35;;
39322;SDS011;25036;53.638;10.134;2024-03-06T05:08:23;3.83;;;3.33;;
39322;SDS011;25036;53.638;10.134;2024-03-06T05:09:24;5.00;;;3.53;;
39322;SDS011;25036;53.638;10.134;2024-03-06T05:10:24;3.40;;;3.10;;
39322;SDS011;25036;53.638;10.134;2024-03-06T05:11:24;4.13;;;3.13;;
39322;SDS011;25036;53.638;10.134;2024-03-06T05:12:24;3.95;;;3.10;;
39322;SDS011;25036;53.638;10.134;2024-03-06T05:13:25;4.68;;;3.20;;
39322;SDS011;25036;53.638;10.134;2024-03-06T05:14:26;3.83;;;3.35;;
39322;SDS011;25036;53.638;10.134;2024-03-06T05:15:26;3.67;;;3.23;;
39322;SDS011;25036;53.638;10.134;2024-03-06T05:16:26;3.60;;;3.30;;
39322;SDS011;25036;53.638;10.134;2024-03-06T05:17:26;3.35;;;2.97;;
39322;SDS011;25036;53.638;10.134;2024-03-06T05:18:26;3.57;;;3.20;;
39322;SDS011;25036;53.638;10.134;2024-03-06T05:19:26;3.60;;;3.30;;
39322;SDS011;25036;53.638;10.134;2024-03-06T05:20:31;3.75;;;3.40;;
39322;SDS011;25036;53.638;10.134;2024-03-06T05:21:32;3.85;;;3.30;;
39322;SDS011;25036;53.638;10.134;2024-03-06T05:22:32;4.78;;;3.20;;
39322;SDS011;25036;53.638;10.134;2024-03-06T05:23:32;3.67;;;3.37;;
39322;SDS011;25036;53.638;10.134;2024-03-06T05:24:32;3.92;;;3.20;;
39322;SDS011;25036;53.638;10.134;2024-03-06T05:25:33;4.00;;;3.10;;
39322;SDS011;25036;53.638;10.134;2024-03-06T05:26:33;4.90;;;3.27;;
39322;SDS011;25036;53.638;10.134;2024-03-06T05:27:34;5.45;;;3.53;;
39322;SDS011;25036;53.638;10.134;2024-03-06T05:28:34;3.50;;;3.20;;
39322;SDS011;25036;53.638;10.134;2024-03-06T05:29:34;3.20;;;2.90;;
39322;SDS011;25036;53.638;10.134;2024-03-06T05:30:36;4.45;;;3.05;;
39322;SDS011;25036;53.638;10.134;2024-03-06T05:31:36;3.78;;;3.08;;
39322;SDS011;25036;53.638;10.134;2024-03-06T05:32:37;3.40;;;3.10;;
39322;SDS011;25036;53.638;10.134;2024-03-06T05:33:37;4.70;;;3.00;;
39322;SDS011;25036;53.638;10.134;2024-03-06T05:34:37;5.05;;;3.45;;
39322;SDS011;25036;53.638;10.134;2024-03-06T05:35:37;3.27;;;3.00;;
39322;SDS011;25036;53.638;10.134;2024-03-06T05:36:37;4.80;;;4.07;;
39322;SDS011;25036;53.638;10.134;2024-03-06T05:37:37;3.93;;;3.27;;
39322;SDS011;25036;53.638;10.134;2024-03-06T05:38:37;5.40;;;3.30;;
39322;SDS011;25036;53.638;10.134;2024-03-06T05:39:37;4.97;;;3.53;;
39322;SDS011;25036;53.638;10.134;2024-03-06T05:40:38;3.10;;;2.63;;
39322;SDS011;25036;53.638;10.134;2024-03-06T05:41:40;3.65;;;3.22;;
39322;SDS011;25036;53.638;10.134;2024-03-06T05:42:41;3.55;;;3.25;;
39322;SDS011;25036;53.638;10.134;2024-03-06T05:43:42;4.72;;;3.25;;
39322;SDS011;25036;53.638;10.134;2024-03-06T05:44:42;3.73;;;3.33;;
39322;SDS011;25036;53.638;10.134;2024-03-06T05:45:42;3.63;;;3.33;;
39322;SDS011;25036;53.638;10.134;2024-03-06T05:46:42;4.07;;;3.63;;
39322;SDS011;25036;53.638;10.134;2024-03-06T05:47:43;3.83;;;3.20;;
39322;SDS011;25036;53.638;10.134;2024-03-06T05:48:43;5.20;;;3.40;;
39322;SDS011;25036;53.638;10.134;2024-03-06T05:49:43;3.75;;;3.33;;
39322;SDS011;25036;53.638;10.134;2024-03-06T05:50:43;3.73;;;3.33;;
39322;SDS011;25036;53.638;10.134;2024-03-06T05:51:44;5.40;;;3.25;;
39322;SDS011;25036;53.638;10.134;2024-03-06T05:52:45;4.25;;;3.50;;
39322;SDS011;25036;53.638;10.134;2024-03-06T05:53:45;4.97;;;3.60;;
39322;SDS011;25036;53.638;10.134;2024-03-06T05:54:46;5.07;;;3.53;;
39322;SDS011;25036;53.638;10.134;2024-03-06T05:55:46;3.17;;;2.92;;
39322;SDS011;25036;53.638;10.134;2024-03-06T05:56:49;5.23;;;3.50;;
39322;SDS011;25036;53.638;10.134;2024-03-06T05:57:51;3.63;;;3.05;;
39322;SDS011;25036;53.638;10.134;2024-03-06T05:58:51;4.15;;;3.40;;